sensor_id;sensor_type;location;lat;lon;timestamp;P1;durP1;ratioP1;P2;durP2;ratioP2
13660;SDS011;6903;49.480;11.102;2024-03-23T00:53:28;10.33;;;7.30;;
13660;SDS011;6903;49.480;11.102;2024-03-23T00:55:53;7.90;;;6.10;;
13660;SDS011;6903;49.480;11.102;2024-03-23T00:58:18;12.20;;;7.20;;
13660;SDS011;6903;49.480;11.102;2024-03-23T01:00:43;12.40;;;7.07;;
13660;SDS011;6903;49.480;11.102;2024-03-23T01:03:08;10.83;;;6.53;;
13660;SDS011;6903;49.480;11.102;2024-03-23T01:05:34;9.53;;;6.37;;
13660;SDS011;6903;49.480;11.102;2024-03-23T01:07:59;10.70;;;7.23;;
13660;SDS011;6903;49.480;11.102;2024-03-23T01:10:24;8.60;;;6.30;;
13660;SDS011;6903;49.480;11.102;2024-03-23T01:12:49;9.87;;;7.07;;
13660;SDS011;6903;49.480;11.102;2024-03-23T01:15:14;10.10;;;7.27;;
13660;SDS011;6903;49.480;11.102;2024-03-23T01:17:40;9.23;;;6.67;;
13660;SDS011;6903;49.480;11.102;2024-03-23T01:20:05;9.73;;;6.70;;
13660;SDS011;6903;49.480;11.102;2024-03-23T01:22:31;10.13;;;6.70;;
13660;SDS011;6903;49.480;11.102;2024-03-23T01:24:56;9.73;;;7.10;;
13660;SDS011;6903;49.480;11.102;2024-03-23T01:27:21;9.63;;;6.40;;
13660;SDS011;6903;49.480;11.102;2024-03-23T01:29:46;9.87;;;7.37;;
13660;SDS011;6903;49.480;11.102;2024-03-23T01:32:12;9.83;;;7.37;;
13660;SDS011;6903;49.480;11.102;2024-03-23T01:34:37;8.83;;;6.90;;
13660;SDS011;6903;49.480;11.102;2024-03-23T01:37:02;9.17;;;6.80;;
13660;SDS011;6903;49.480;11.102;2024-03-23T01:39:28;8.10;;;6.87;;
13660;SDS011;6903;49.480;11.102;2024-03-23T01:41:53;8.47;;;6.83;;
13660;SDS011;6903;49.480;11.102;2024-03-23T01:44:18;9.33;;;6.83;;
13660;SDS011;6903;49.480;11.102;2024-03-23T01:46:44;9.23;;;6.50;;
13660;SDS011;6903;49.480;11.102;2024-03-23T01:49:09;9.17;;;6.83;;
13660;SDS011;6903;49.480;11.102;2024-03-23T01:51:35;8.50;;;6.17;;
13660;SDS011;6903;49.480;11.102;2024-03-23T01:54:03;11.33;;;7.47;;
13660;SDS011;6903;49.480;11.102;2024-03-23T01:56:33;8.47;;;6.67;;
13660;SDS011;6903;49.480;11.102;2024-03-23T01:59:00;8.80;;;5.83;;
13660;SDS011;6903;49.480;11.102;2024-03-23T02:01:25;11.13;;;6.40;;
13660;SDS011;6903;49.480;11.102;2024-03-23T02:03:51;7.10;;;6.07;;
13660;SDS011;6903;49.480;11.102;2024-03-23T02:06:16;9.63;;;6.50;;
13660;SDS011;6903;49.480;11.102;2024-03-23T02:08:41;8.90;;;6.30;;
13660;SDS011;6903;49.480;11.102;2024-03-23T02:11:06;8.07;;;5.60;;
13660;SDS011;6903;49.480;11.102;2024-03-23T02:13:31;7.97;;;5.97;;
13660;SDS011;6903;49.480;11.102;2024-03-23T02:15:57;7.20;;;5.83;;
13660;SDS011;6903;49.480;11.102;2024-03-23T02:18:22;8.80;;;5.93;;
13660;SDS011;6903;49.480;11.102;2024-03-23T02:20:47;8.80;;;5.83;;
13660;SDS011;6903;49.480;11.102;2024-03-23T02:23:13;7.60;;;5.80;;
13660;SDS011;6903;49.480;11.102;2024-03-23T02:25:38;6.83;;;5.50;;
13660;SDS011;6903;49.480;11.102;2024-03-23T02:28:03;8.30;;;5.80;;
13660;SDS011;6903;49.480;11.102;2024-03-23T02:30:28;7.87;;;5.60;;
13660;SDS011;6903;49.480;11.102;2024-03-23T02:32:54;8.70;;;5.97;;
13660;SDS011;6903;49.480;11.102;2024-03-23T02:35:19;7.00;;;5.47;;
13660;SDS011;6903;49.480;11.102;2024-03-23T02:37:45;7.10;;;5.57;;
13660;SDS011;6903;49.480;11.102;2024-03-23T02:40:11;7.47;;;5.67;;
13660;SDS011;6903;49.480;11.102;2024-03-23T02:42:36;7.50;;;6.30;;
13660;SDS011;6903;49.480;11.102;2024-03-23T02:45:01;9.40;;;6.07;;
13660;SDS011;6903;49.480;11.102;2024-03-23T02:47:29;6.97;;;5.30;;
13660;SDS011;6903;49.480;11.102;2024-03-23T02:49:54;6.73;;;5.90;;
13660;SDS011;6903;49.480;11.102;2024-03-23T02:52:20;6.20;;;5.30;;
13660;SDS011;6903;49.480;11.102;2024-03-23T02:54:45;8.83;;;5.83;;
13660;SDS011;6903;49.480;11.102;2024-03-23T02:57:11;8.40;;;5.67;;
13660;SDS011;6903;49.480;11.102;2024-03-23T02:59:36;9.93;;;5.80;;
13660;SDS011;6903;49.480;11.102;2024-03-23T03:02:01;6.47;;;5.57;;
13660;SDS011;6903;49.480;11.102;2024-03-23T03:04:26;6.83;;;5.90;;
13660;SDS011;6903;49.480;11.102;2024-03-23T03:06:51;6.93;;;5.60;;
13660;SDS011;6903;49.480;11.102;2024-03-23T03:09:17;6.80;;;5.80;;
13660;SDS011;6903;49.480;11.102;2024-03-23T03:11:42;8.03;;;5.83;;
13660;SDS011;6903;49.480;11.102;2024-03-23T03:14:07;8.70;;;5.73;;
13660;SDS011;6903;49.480;11.102;2024-03-23T03:16:33;6.73;;;5.67;;
13660;SDS011;6903;49.480;11.102;2024-03-23T03:18:58;8.43;;;5.83;;
13660;SDS011;6903;49.480;11.102;2024-03-23T03:21:23;9.57;;;6.03;;
13660;SDS011;6903;49.480;11.102;2024-03-23T03:23:48;7.60;;;6.00;;
13660;SDS011;6903;49.480;11.102;2024-03-23T03:26:15;10.30;;;6.00;;
13660;SDS011;6903;49.480;11.102;2024-03-23T03:28:40;8.40;;;6.23;;
13660;SDS011;6903;49.480;11.102;2024-03-23T03:31:05;9.60;;;6.37;;
13660;SDS011;6903;49.480;11.102;2024-03-23T03:33:30;8.17;;;6.63;;
13660;SDS011;6903;49.480;11.102;2024-03-23T03:35:56;8.87;;;6.50;;
13660;SDS011;6903;49.480;11.102;2024-03-23T03:38:21;8.67;;;5.97;;
13660;SDS011;6903;49.480;11.102;2024-03-23T03:40:46;7.73;;;6.13;;
13660;SDS011;6903;49.480;11.102;2024-03-23T03:43:11;8.87;;;5.83;;
13660;SDS011;6903;49.480;11.102;2024-03-23T03:45:37;9.97;;;6.67;;
13660;SDS011;6903;49.480;11.102;2024-03-23T03:48:02;7.67;;;6.47;;
13660;SDS011;6903;49.480;11.102;2024-03-23T03:50:27;7.73;;;6.07;;
13660;SDS011;6903;49.480;11.102;2024-03-23T03:52:52;9.30;;;7.00;;
13660;SDS011;6903;49.480;11.102;2024-03-23T03:55:17;7.80;;;6.03;;
13660;SDS011;6903;49.480;11.102;2024-03-23T03:57:43;6.97;;;6.23;;
13660;SDS011;6903;49.480;11.102;2024-03-23T04:00:08;8.47;;;6.50;;
13660;SDS011;6903;49.480;11.102;2024-03-23T04:02:36;7.33;;;6.23;;
13660;SDS011;6903;49.480;11.102;2024-03-23T04:05:01;8.80;;;6.90;;
13660;SDS011;6903;49.480;11.102;2024-03-23T04:07:28;8.33;;;6.93;;
13660;SDS011;6903;49.480;11.102;2024-03-23T04:09:53;9.77;;;6.77;;
13660;SDS011;6903;49.480;11.102;2024-03-23T04:12:18;8.90;;;6.90;;
13660;SDS011;6903;49.480;11.102;2024-03-23T04:14:43;8.33;;;6.53;;
13660;SDS011;6903;49.480;11.102;2024-03-23T04:17:09;8.03;;;6.60;;
13660;SDS011;6903;49.480;11.102;2024-03-23T04:19:34;10.10;;;7.30;;
13660;SDS011;6903;49.480;11.102;2024-03-23T04:21:59;9.87;;;7.17;;
13660;SDS011;6903;49.480;11.102;2024-03-23T04:24:24;9.23;;;7.30;;
13660;SDS011;6903;49.480;11.102;2024-03-23T04:26:51;9.00;;;6.77;;
13660;SDS011;6903;49.480;11.102;2024-03-23T04:29:16;11.60;;;7.63;;
13660;SDS011;6903;49.480;11.102;2024-03-23T04:31:42;9.87;;;6.93;;
13660;SDS011;6903;49.480;11.102;2024-03-23T04:34:07;10.77;;;7.40;;
13660;SDS011;6903;49.480;11.102;2024-03-23T04:36:32;13.17;;;7.43;;
13660;SDS011;6903;49.480;11.102;2024-03-23T04:38:58;10.03;;;6.97;;
13660;SDS011;6903;49.480;11.102;2024-03-23T04:41:24;9.40;;;7.60;;
13660;SDS011;6903;49.480;11.102;2024-03-23T04:43:49;10.43;;;7.53;;
13660;SDS011;6903;49.480;11.102;2024-03-23T04:46:14;10.03;;;7.27;;
13660;SDS011;6903;49.480;11.102;2024-03-23T04:48:40;9.87;;;7.00;;
13660;SDS011;6903;49.480;11.102;2024-03-23T04:51:05;9.87;;;7.37;;
13660;SDS011;6903;49.480;11.102;2024-03-23T04:53:30;10.00;;;7.23;;
13660;SDS011;6903;49.480;11.102;2024-03-23T04:55:56;9.50;;;7.17;;
13660;SDS011;6903;49.480;11.102;2024-03-23T04:58:24;9.37;;;6.73;;
13660;SDS011;6903;49.480;11.102;2024-03-23T05:00:53;9.67;;;6.60;;
13660;SDS011;6903;49.480;11.102;2024-03-23T05:03:18;7.67;;;6.17;;
13660;SDS011;6903;49.480;11.102;2024-03-23T05:05:46;9.00;;;7.27;;
13660;SDS011;6903;49.480;11.102;2024-03-23T05:08:11;10.03;;;6.83;;
13660;SDS011;6903;49.480;11.102;2024-03-23T05:10:37;10.70;;;6.97;;
13660;SDS011;6903;49.480;11.102;2024-03-23T05:13:02;9.33;;;6.87;;
13660;SDS011;6903;49.480;11.102;2024-03-23T05:15:28;8.63;;;6.57;;
13660;SDS011;6903;49.480;11.102;2024-03-23T05:17:54;8.97;;;6.50;;
13660;SDS011;6903;49.480;11.102;2024-03-23T05:20:20;8.93;;;6.60;;
13660;SDS011;6903;49.480;11.102;2024-03-23T05:22:45;9.93;;;6.80;;
13660;SDS011;6903;49.480;11.102;2024-03-23T05:25:10;11.33;;;7.20;;
13660;SDS011;6903;49.480;11.102;2024-03-23T05:27:36;7.73;;;6.20;;
13660;SDS011;6903;49.480;11.102;2024-03-23T05:30:01;7.50;;;6.20;;
13660;SDS011;6903;49.480;11.102;2024-03-23T05:32:27;8.33;;;5.87;;
13660;SDS011;6903;49.480;11.102;2024-03-23T05:34:53;9.90;;;6.90;;
13660;SDS011;6903;49.480;11.102;2024-03-23T05:37:21;10.43;;;6.00;;
13660;SDS011;6903;49.480;11.102;2024-03-23T05:39:46;10.77;;;6.40;;
13660;SDS011;6903;49.480;11.102;2024-03-23T05:42:13;10.60;;;6.27;;
13660;SDS011;6903;49.480;11.102;2024-03-23T05:44:39;7.20;;;5.60;;
13660;SDS011;6903;49.480;11.102;2024-03-23T05:47:04;8.80;;;5.80;;
13660;SDS011;6903;49.480;11.102;2024-03-23T05:49:30;7.53;;;5.93;;
13660;SDS011;6903;49.480;11.102;2024-03-23T05:51:55;8.40;;;6.13;;
13660;SDS011;6903;49.480;11.102;2024-03-23T05:54:20;12.90;;;5.43;;
13660;SDS011;6903;49.480;11.102;2024-03-23T05:56:45;7.30;;;5.27;;
13660;SDS011;6903;49.480;11.102;2024-03-23T05:59:10;9.43;;;5.50;;
13660;SDS011;6903;49.480;11.102;2024-03-23T06:01:35;8.73;;;5.60;;
13660;SDS011;6903;49.480;11.102;2024-03-23T06:04:01;7.57;;;4.80;;
13660;SDS011;6903;49.480;11.102;2024-03-23T06:06:26;8.17;;;4.90;;
13660;SDS011;6903;49.480;11.102;2024-03-23T06:08:51;7.90;;;5.07;;
13660;SDS011;6903;49.480;11.102;2024-03-23T06:11:16;9.00;;;5.33;;
13660;SDS011;6903;49.480;11.102;2024-03-23T06:13:42;9.70;;;4.93;;
13660;SDS011;6903;49.480;11.102;2024-03-23T06:16:07;6.40;;;5.00;;
13660;SDS011;6903;49.480;11.102;2024-03-23T06:18:32;5.40;;;4.53;;
13660;SDS011;6903;49.480;11.102;2024-03-23T06:20:58;8.13;;;4.83;;
13660;SDS011;6903;49.480;11.102;2024-03-23T06:23:23;6.03;;;5.20;;
13660;SDS011;6903;49.480;11.102;2024-03-23T06:25:48;5.93;;;5.07;;
13660;SDS011;6903;49.480;11.102;2024-03-23T06:28:13;8.50;;;5.70;;
13660;SDS011;6903;49.480;11.102;2024-03-23T06:30:39;9.27;;;6.30;;
13660;SDS011;6903;49.480;11.102;2024-03-23T06:33:04;9.70;;;6.10;;
13660;SDS011;6903;49.480;11.102;2024-03-23T06:35:30;9.67;;;6.33;;
13660;SDS011;6903;49.480;11.102;2024-03-23T06:37:55;9.10;;;7.00;;
13660;SDS011;6903;49.480;11.102;2024-03-23T06:40:21;10.20;;;7.47;;
13660;SDS011;6903;49.480;11.102;2024-03-23T06:42:46;10.67;;;7.80;;
13660;SDS011;6903;49.480;11.102;2024-03-23T06:45:11;10.67;;;7.50;;
13660;SDS011;6903;49.480;11.102;2024-03-23T06:47:36;10.80;;;8.03;;
13660;SDS011;6903;49.480;11.102;2024-03-23T06:50:02;11.53;;;8.33;;
13660;SDS011;6903;49.480;11.102;2024-03-23T06:52:27;12.10;;;8.90;;
13660;SDS011;6903;49.480;11.102;2024-03-23T06:54:53;13.47;;;8.00;;
13660;SDS011;6903;49.480;11.102;2024-03-23T06:57:18;11.73;;;8.93;;
13660;SDS011;6903;49.480;11.102;2024-03-23T06:59:43;12.40;;;7.93;;
13660;SDS011;6903;49.480;11.102;2024-03-23T07:02:08;10.77;;;8.03;;
13660;SDS011;6903;49.480;11.102;2024-03-23T07:04:34;9.90;;;7.80;;
13660;SDS011;6903;49.480;11.102;2024-03-23T07:06:59;11.70;;;8.07;;
13660;SDS011;6903;49.480;11.102;2024-03-23T07:09:24;11.67;;;7.70;;
13660;SDS011;6903;49.480;11.102;2024-03-23T07:11:51;11.03;;;8.03;;
13660;SDS011;6903;49.480;11.102;2024-03-23T07:14:18;11.23;;;7.07;;
13660;SDS011;6903;49.480;11.102;2024-03-23T07:16:43;9.90;;;7.43;;
13660;SDS011;6903;49.480;11.102;2024-03-23T07:19:08;9.97;;;7.00;;
13660;SDS011;6903;49.480;11.102;2024-03-23T07:21:34;10.10;;;7.20;;
13660;SDS011;6903;49.480;11.102;2024-03-23T07:23:59;10.57;;;7.17;;
13660;SDS011;6903;49.480;11.102;2024-03-23T07:26:24;8.50;;;6.43;;
13660;SDS011;6903;49.480;11.102;2024-03-23T07:28:49;9.73;;;6.80;;
13660;SDS011;6903;49.480;11.102;2024-03-23T07:31:14;9.27;;;5.80;;
13660;SDS011;6903;49.480;11.102;2024-03-23T07:33:46;8.13;;;5.40;;
13660;SDS011;6903;49.480;11.102;2024-03-23T07:36:12;7.93;;;5.33;;
13660;SDS011;6903;49.480;11.102;2024-03-23T07:38:39;7.77;;;5.33;;
13660;SDS011;6903;49.480;11.102;2024-03-23T07:41:05;8.63;;;5.63;;
13660;SDS011;6903;49.480;11.102;2024-03-23T07:43:31;8.40;;;5.50;;
13660;SDS011;6903;49.480;11.102;2024-03-23T07:45:56;6.97;;;4.90;;
13660;SDS011;6903;49.480;11.102;2024-03-23T07:48:21;9.47;;;5.50;;
13660;SDS011;6903;49.480;11.102;2024-03-23T07:50:55;8.83;;;5.73;;
13660;SDS011;6903;49.480;11.102;2024-03-23T07:53:20;8.30;;;5.70;;
13660;SDS011;6903;49.480;11.102;2024-03-23T07:55:52;8.63;;;5.60;;
13660;SDS011;6903;49.480;11.102;2024-03-23T07:58:17;9.30;;;5.90;;
13660;SDS011;6903;49.480;11.102;2024-03-23T08:00:42;7.13;;;5.33;;
13660;SDS011;6903;49.480;11.102;2024-03-23T08:03:07;8.70;;;5.87;;
13660;SDS011;6903;49.480;11.102;2024-03-23T08:05:32;6.53;;;5.40;;
13660;SDS011;6903;49.480;11.102;2024-03-23T08:07:59;7.63;;;5.57;;
13660;SDS011;6903;49.480;11.102;2024-03-23T08:10:24;7.50;;;5.67;;
13660;SDS011;6903;49.480;11.102;2024-03-23T08:12:49;7.73;;;5.40;;
13660;SDS011;6903;49.480;11.102;2024-03-23T08:15:14;7.80;;;5.17;;
13660;SDS011;6903;49.480;11.102;2024-03-23T08:17:39;7.07;;;5.70;;
13660;SDS011;6903;49.480;11.102;2024-03-23T08:20:05;8.97;;;6.00;;
13660;SDS011;6903;49.480;11.102;2024-03-23T08:22:30;7.33;;;5.30;;
13660;SDS011;6903;49.480;11.102;2024-03-23T08:24:55;6.97;;;5.23;;
13660;SDS011;6903;49.480;11.102;2024-03-23T08:27:20;6.47;;;4.23;;
13660;SDS011;6903;49.480;11.102;2024-03-23T08:29:46;6.10;;;3.50;;
13660;SDS011;6903;49.480;11.102;2024-03-23T08:32:11;5.03;;;3.37;;
13660;SDS011;6903;49.480;11.102;2024-03-23T08:34:37;4.47;;;3.23;;
13660;SDS011;6903;49.480;11.102;2024-03-23T08:37:02;4.23;;;3.20;;
13660;SDS011;6903;49.480;11.102;2024-03-23T08:39:27;5.47;;;3.27;;
13660;SDS011;6903;49.480;11.102;2024-03-23T08:41:53;3.23;;;2.80;;
13660;SDS011;6903;49.480;11.102;2024-03-23T08:44:18;2.73;;;2.47;;
13660;SDS011;6903;49.480;11.102;2024-03-23T08:46:43;4.17;;;2.90;;
13660;SDS011;6903;49.480;11.102;2024-03-23T08:49:08;3.67;;;2.90;;
13660;SDS011;6903;49.480;11.102;2024-03-23T08:51:34;3.23;;;2.80;;
13660;SDS011;6903;49.480;11.102;2024-03-23T08:53:59;4.00;;;3.23;;
13660;SDS011;6903;49.480;11.102;2024-03-23T08:56:24;4.47;;;3.50;;
13660;SDS011;6903;49.480;11.102;2024-03-23T08:58:49;2.90;;;2.60;;
13660;SDS011;6903;49.480;11.102;2024-03-23T09:01:14;2.60;;;2.20;;
13660;SDS011;6903;49.480;11.102;2024-03-23T09:03:39;2.43;;;2.10;;
13660;SDS011;6903;49.480;11.102;2024-03-23T09:06:08;1.50;;;1.40;;
13660;SDS011;6903;49.480;11.102;2024-03-23T09:08:34;1.90;;;1.80;;
13660;SDS011;6903;49.480;11.102;2024-03-23T09:11:03;1.60;;;1.50;;
13660;SDS011;6903;49.480;11.102;2024-03-23T09:13:28;1.60;;;1.50;;
13660;SDS011;6903;49.480;11.102;2024-03-23T09:15:54;1.90;;;1.60;;
13660;SDS011;6903;49.480;11.102;2024-03-23T09:18:21;1.53;;;1.20;;
13660;SDS011;6903;49.480;11.102;2024-03-23T09:20:46;1.23;;;1.13;;
13660;SDS011;6903;49.480;11.102;2024-03-23T09:23:12;1.20;;;1.10;;
13660;SDS011;6903;49.480;11.102;2024-03-23T09:25:40;0.90;;;0.90;;
13660;SDS011;6903;49.480;11.102;2024-03-23T09:28:08;1.03;;;0.90;;
13660;SDS011;6903;49.480;11.102;2024-03-23T09:30:34;1.13;;;0.83;;
13660;SDS011;6903;49.480;11.102;2024-03-23T09:32:59;1.77;;;0.80;;
13660;SDS011;6903;49.480;11.102;2024-03-23T09:35:24;1.00;;;0.90;;
13660;SDS011;6903;49.480;11.102;2024-03-23T09:37:49;1.33;;;0.73;;
13660;SDS011;6903;49.480;11.102;2024-03-23T09:40:15;0.77;;;0.77;;
13660;SDS011;6903;49.480;11.102;2024-03-23T09:42:40;0.60;;;0.60;;
13660;SDS011;6903;49.480;11.102;2024-03-23T09:45:11;0.50;;;0.50;;
13660;SDS011;6903;49.480;11.102;2024-03-23T09:47:41;1.30;;;0.50;;
13660;SDS011;6903;49.480;11.102;2024-03-23T09:50:06;0.40;;;0.40;;
13660;SDS011;6903;49.480;11.102;2024-03-23T09:52:32;0.53;;;0.40;;
13660;SDS011;6903;49.480;11.102;2024-03-23T09:54:57;0.40;;;0.40;;
13660;SDS011;6903;49.480;11.102;2024-03-23T09:57:23;0.93;;;0.60;;
13660;SDS011;6903;49.480;11.102;2024-03-23T09:59:48;0.50;;;0.50;;
13660;SDS011;6903;49.480;11.102;2024-03-23T10:02:13;0.40;;;0.40;;
13660;SDS011;6903;49.480;11.102;2024-03-23T10:04:42;0.80;;;0.40;;
13660;SDS011;6903;49.480;11.102;2024-03-23T10:07:41;0.63;;;0.50;;
13660;SDS011;6903;49.480;11.102;2024-03-23T10:09:59;0.40;;;0.40;;
13660;SDS011;6903;49.480;11.102;2024-03-23T10:12:35;0.43;;;0.43;;
13660;SDS011;6903;49.480;11.102;2024-03-23T10:15:00;0.37;;;0.37;;
13660;SDS011;6903;49.480;11.102;2024-03-23T10:17:25;0.50;;;0.50;;
13660;SDS011;6903;49.480;11.102;2024-03-23T10:19:51;0.73;;;0.40;;
13660;SDS011;6903;49.480;11.102;2024-03-23T10:22:18;0.63;;;0.60;;
13660;SDS011;6903;49.480;11.102;2024-03-23T10:24:43;0.70;;;0.70;;
13660;SDS011;6903;49.480;11.102;2024-03-23T10:27:08;0.63;;;0.60;;
13660;SDS011;6903;49.480;11.102;2024-03-23T10:29:33;0.70;;;0.70;;
13660;SDS011;6903;49.480;11.102;2024-03-23T10:32:08;1.07;;;0.60;;
13660;SDS011;6903;49.480;11.102;2024-03-23T10:34:33;0.87;;;0.77;;
13660;SDS011;6903;49.480;11.102;2024-03-23T10:36:59;1.70;;;0.70;;
13660;SDS011;6903;49.480;11.102;2024-03-23T10:39:25;0.90;;;0.90;;
13660;SDS011;6903;49.480;11.102;2024-03-23T10:41:50;1.07;;;0.97;;
13660;SDS011;6903;49.480;11.102;2024-03-23T10:44:19;1.10;;;0.90;;
13660;SDS011;6903;49.480;11.102;2024-03-23T10:46:44;1.60;;;1.00;;
13660;SDS011;6903;49.480;11.102;2024-03-23T10:49:10;1.10;;;1.00;;
13660;SDS011;6903;49.480;11.102;2024-03-23T10:51:35;1.03;;;0.80;;
13660;SDS011;6903;49.480;11.102;2024-03-23T10:54:00;1.20;;;0.87;;
13660;SDS011;6903;49.480;11.102;2024-03-23T10:56:29;2.70;;;1.57;;
13660;SDS011;6903;49.480;11.102;2024-03-23T10:58:58;1.93;;;1.30;;
13660;SDS011;6903;49.480;11.102;2024-03-23T11:01:24;4.07;;;1.30;;
13660;SDS011;6903;49.480;11.102;2024-03-23T11:03:51;2.33;;;1.33;;
13660;SDS011;6903;49.480;11.102;2024-03-23T11:09:01;2.07;;;1.23;;
13660;SDS011;6903;49.480;11.102;2024-03-23T11:11:26;2.63;;;1.60;;
13660;SDS011;6903;49.480;11.102;2024-03-23T11:13:52;2.03;;;1.47;;
13660;SDS011;6903;49.480;11.102;2024-03-23T11:16:21;2.23;;;1.30;;
13660;SDS011;6903;49.480;11.102;2024-03-23T11:18:47;3.17;;;1.80;;
13660;SDS011;6903;49.480;11.102;2024-03-23T11:21:57;1.93;;;1.47;;
13660;SDS011;6903;49.480;11.102;2024-03-23T11:24:12;3.93;;;1.50;;
13660;SDS011;6903;49.480;11.102;2024-03-23T11:26:38;2.80;;;1.50;;
13660;SDS011;6903;49.480;11.102;2024-03-23T11:29:14;2.87;;;1.80;;
13660;SDS011;6903;49.480;11.102;2024-03-23T11:31:49;3.10;;;1.53;;
13660;SDS011;6903;49.480;11.102;2024-03-23T11:34:18;3.07;;;1.90;;
13660;SDS011;6903;49.480;11.102;2024-03-23T11:36:43;3.47;;;1.73;;
13660;SDS011;6903;49.480;11.102;2024-03-23T11:39:15;2.93;;;2.17;;
13660;SDS011;6903;49.480;11.102;2024-03-23T11:41:51;2.40;;;2.00;;
13660;SDS011;6903;49.480;11.102;2024-03-23T11:44:20;3.00;;;1.80;;
13660;SDS011;6903;49.480;11.102;2024-03-23T11:46:47;4.27;;;2.07;;
13660;SDS011;6903;49.480;11.102;2024-03-23T11:49:22;3.20;;;2.00;;
13660;SDS011;6903;49.480;11.102;2024-03-23T11:51:48;3.23;;;1.80;;
13660;SDS011;6903;49.480;11.102;2024-03-23T11:54:13;3.80;;;1.90;;
13660;SDS011;6903;49.480;11.102;2024-03-23T11:56:38;3.13;;;1.90;;
13660;SDS011;6903;49.480;11.102;2024-03-23T11:59:04;3.90;;;1.93;;
13660;SDS011;6903;49.480;11.102;2024-03-23T12:01:29;7.33;;;2.40;;
13660;SDS011;6903;49.480;11.102;2024-03-23T12:03:54;4.27;;;1.70;;
13660;SDS011;6903;49.480;11.102;2024-03-23T12:06:19;3.70;;;1.90;;
13660;SDS011;6903;49.480;11.102;2024-03-23T12:08:45;3.53;;;1.60;;
13660;SDS011;6903;49.480;11.102;2024-03-23T12:13:39;2.27;;;1.70;;
13660;SDS011;6903;49.480;11.102;2024-03-23T12:16:13;3.73;;;1.80;;
13660;SDS011;6903;49.480;11.102;2024-03-23T12:18:41;2.37;;;1.47;;
13660;SDS011;6903;49.480;11.102;2024-03-23T12:21:07;2.47;;;1.60;;
13660;SDS011;6903;49.480;11.102;2024-03-23T12:23:32;2.70;;;1.67;;
13660;SDS011;6903;49.480;11.102;2024-03-23T12:25:57;4.57;;;1.90;;
13660;SDS011;6903;49.480;11.102;2024-03-23T12:28:22;2.80;;;1.43;;
13660;SDS011;6903;49.480;11.102;2024-03-23T12:30:48;3.17;;;1.50;;
13660;SDS011;6903;49.480;11.102;2024-03-23T12:33:13;2.40;;;1.53;;
13660;SDS011;6903;49.480;11.102;2024-03-23T12:35:38;2.20;;;1.60;;
13660;SDS011;6903;49.480;11.102;2024-03-23T12:38:03;3.73;;;1.77;;
13660;SDS011;6903;49.480;11.102;2024-03-23T12:40:28;2.10;;;1.43;;
13660;SDS011;6903;49.480;11.102;2024-03-23T12:42:54;3.37;;;1.70;;
13660;SDS011;6903;49.480;11.102;2024-03-23T12:45:19;2.87;;;1.73;;
13660;SDS011;6903;49.480;11.102;2024-03-23T12:47:44;3.20;;;1.83;;
13660;SDS011;6903;49.480;11.102;2024-03-23T12:50:09;2.63;;;1.83;;
13660;SDS011;6903;49.480;11.102;2024-03-23T12:52:35;3.23;;;1.80;;
13660;SDS011;6903;49.480;11.102;2024-03-23T12:55:00;3.20;;;1.90;;
13660;SDS011;6903;49.480;11.102;2024-03-23T12:57:26;4.10;;;1.80;;
13660;SDS011;6903;49.480;11.102;2024-03-23T12:59:51;3.05;;;1.67;;
13660;SDS011;6903;49.480;11.102;2024-03-23T13:02:18;2.03;;;1.60;;
13660;SDS011;6903;49.480;11.102;2024-03-23T13:04:44;4.17;;;1.63;;
13660;SDS011;6903;49.480;11.102;2024-03-23T13:07:09;5.10;;;2.17;;
13660;SDS011;6903;49.480;11.102;2024-03-23T13:09:34;2.97;;;2.00;;
13660;SDS011;6903;49.480;11.102;2024-03-23T13:11:59;3.57;;;2.07;;
13660;SDS011;6903;49.480;11.102;2024-03-23T13:14:25;3.53;;;1.90;;
13660;SDS011;6903;49.480;11.102;2024-03-23T13:16:50;4.97;;;2.40;;
13660;SDS011;6903;49.480;11.102;2024-03-23T13:19:15;2.07;;;1.67;;
13660;SDS011;6903;49.480;11.102;2024-03-23T13:21:40;3.43;;;2.00;;
13660;SDS011;6903;49.480;11.102;2024-03-23T13:24:05;3.90;;;1.90;;
13660;SDS011;6903;49.480;11.102;2024-03-23T13:26:31;3.00;;;2.00;;
13660;SDS011;6903;49.480;11.102;2024-03-23T13:28:56;2.83;;;1.80;;
13660;SDS011;6903;49.480;11.102;2024-03-23T13:31:21;4.57;;;1.90;;
13660;SDS011;6903;49.480;11.102;2024-03-23T13:33:46;4.57;;;1.90;;
13660;SDS011;6903;49.480;11.102;2024-03-23T13:36:11;3.43;;;1.80;;
13660;SDS011;6903;49.480;11.102;2024-03-23T13:38:36;4.50;;;2.07;;
13660;SDS011;6903;49.480;11.102;2024-03-23T13:41:02;4.17;;;1.80;;
13660;SDS011;6903;49.480;11.102;2024-03-23T13:43:29;6.13;;;2.00;;
13660;SDS011;6903;49.480;11.102;2024-03-23T13:45:58;3.77;;;2.10;;
13660;SDS011;6903;49.480;11.102;2024-03-23T13:48:23;4.87;;;2.30;;
13660;SDS011;6903;49.480;11.102;2024-03-23T13:51:04;5.47;;;2.03;;
13660;SDS011;6903;49.480;11.102;2024-03-23T13:53:29;3.53;;;1.83;;
13660;SDS011;6903;49.480;11.102;2024-03-23T13:55:55;5.00;;;2.10;;
13660;SDS011;6903;49.480;11.102;2024-03-23T13:58:20;3.20;;;1.50;;
13660;SDS011;6903;49.480;11.102;2024-03-23T14:00:45;2.50;;;1.80;;
13660;SDS011;6903;49.480;11.102;2024-03-23T14:03:11;3.53;;;1.63;;
13660;SDS011;6903;49.480;11.102;2024-03-23T14:05:36;6.73;;;2.20;;
13660;SDS011;6903;49.480;11.102;2024-03-23T14:08:04;3.17;;;1.70;;
13660;SDS011;6903;49.480;11.102;2024-03-23T14:10:30;4.57;;;2.03;;
13660;SDS011;6903;49.480;11.102;2024-03-23T14:12:55;4.57;;;2.00;;
13660;SDS011;6903;49.480;11.102;2024-03-23T14:15:20;4.37;;;1.70;;
13660;SDS011;6903;49.480;11.102;2024-03-23T14:17:45;5.00;;;2.17;;
13660;SDS011;6903;49.480;11.102;2024-03-23T14:20:10;3.53;;;1.87;;
13660;SDS011;6903;49.480;11.102;2024-03-23T14:22:36;3.33;;;1.80;;
13660;SDS011;6903;49.480;11.102;2024-03-23T14:25:01;3.40;;;1.77;;
13660;SDS011;6903;49.480;11.102;2024-03-23T14:27:26;2.37;;;1.50;;
13660;SDS011;6903;49.480;11.102;2024-03-23T14:29:51;3.97;;;1.60;;
13660;SDS011;6903;49.480;11.102;2024-03-23T14:32:17;3.23;;;1.70;;
13660;SDS011;6903;49.480;11.102;2024-03-23T14:34:42;2.93;;;1.43;;
13660;SDS011;6903;49.480;11.102;2024-03-23T14:37:07;4.47;;;2.50;;
13660;SDS011;6903;49.480;11.102;2024-03-23T14:39:33;5.80;;;2.07;;
13660;SDS011;6903;49.480;11.102;2024-03-23T14:42:00;3.40;;;1.90;;
13660;SDS011;6903;49.480;11.102;2024-03-23T14:44:25;3.83;;;1.87;;
13660;SDS011;6903;49.480;11.102;2024-03-23T14:46:50;2.93;;;1.57;;
13660;SDS011;6903;49.480;11.102;2024-03-23T14:49:16;3.73;;;1.70;;
13660;SDS011;6903;49.480;11.102;2024-03-23T14:51:44;3.10;;;1.93;;
13660;SDS011;6903;49.480;11.102;2024-03-23T14:54:09;4.53;;;1.90;;
13660;SDS011;6903;49.480;11.102;2024-03-23T14:56:35;5.27;;;2.10;;
13660;SDS011;6903;49.480;11.102;2024-03-23T14:59:01;4.13;;;1.57;;
13660;SDS011;6903;49.480;11.102;2024-03-23T15:01:26;3.53;;;2.00;;
13660;SDS011;6903;49.480;11.102;2024-03-23T15:03:51;3.87;;;2.10;;
13660;SDS011;6903;49.480;11.102;2024-03-23T15:06:18;5.13;;;2.43;;
13660;SDS011;6903;49.480;11.102;2024-03-23T15:08:43;3.20;;;1.77;;
13660;SDS011;6903;49.480;11.102;2024-03-23T15:11:08;5.57;;;1.97;;
13660;SDS011;6903;49.480;11.102;2024-03-23T15:13:34;4.13;;;2.00;;
13660;SDS011;6903;49.480;11.102;2024-03-23T15:15:59;4.83;;;2.17;;
13660;SDS011;6903;49.480;11.102;2024-03-23T15:18:25;3.80;;;2.30;;
13660;SDS011;6903;49.480;11.102;2024-03-23T15:20:56;3.50;;;2.00;;
13660;SDS011;6903;49.480;11.102;2024-03-23T15:23:22;3.63;;;1.67;;
13660;SDS011;6903;49.480;11.102;2024-03-23T15:25:57;3.87;;;1.67;;
13660;SDS011;6903;49.480;11.102;2024-03-23T15:28:22;2.60;;;1.80;;
13660;SDS011;6903;49.480;11.102;2024-03-23T15:30:48;2.53;;;1.70;;
13660;SDS011;6903;49.480;11.102;2024-03-23T15:33:13;3.40;;;1.70;;
13660;SDS011;6903;49.480;11.102;2024-03-23T15:35:38;3.33;;;1.97;;